Time;durP1;ratioP1;P1;durP2;ratioP2;P2;SDS_P1;SDS_P2;PMS_P1;PMS_P2;Temp;Humidity;BMP_temperature;BMP_pressure;BME280_temperature;BME280_humidity;BME280_pressure;Samples;Min_cycle;Max_cycle;Signal;HPM_P1;HPM_P2
2022/03/27 00:02:01;;;;;;;9.45;5.68;;;13.20;67.10;;;;;;5051703;28;20163;-60
2022/03/27 00:04:27;;;;;;;9.38;5.35;;;13.10;67.20;;;;;;5043631;28;20079;-60
2022/03/27 00:06:52;;;;;;;9.60;5.97;;;13.10;67.30;;;;;;5034146;28;20034;-60
2022/03/27 00:09:18;;;;;;;10.35;5.80;;;13.10;67.40;;;;;;5033924;28;20033;-60
2022/03/27 00:11:43;;;;;;;10.57;5.63;;;13.10;67.40;;;;;;5047861;28;20343;-60
2022/03/27 00:14:09;;;;;;;9.82;5.78;;;13.10;67.40;;;;;;5053651;28;20441;-60
2022/03/27 00:16:35;;;;;;;8.75;5.30;;;13.10;67.50;;;;;;5043747;28;20025;-60
2022/03/27 00:19:01;;;;;;;8.50;5.50;;;13.10;67.60;;;;;;5053025;28;20025;-60
2022/03/27 00:21:27;;;;;;;9.38;5.85;;;13.00;67.60;;;;;;5044658;28;20435;-60
2022/03/27 00:23:53;;;;;;;9.63;5.85;;;13.00;67.70;;;;;;5043664;28;20060;-60
2022/03/27 00:26:20;;;;;;;9.15;5.47;;;13.00;67.80;;;;;;5035853;28;20068;-60
2022/03/27 00:28:46;;;;;;;9.57;5.47;;;13.00;67.80;;;;;;5034602;28;20040;-60
2022/03/27 00:31:12;;;;;;;9.82;6.10;;;13.00;67.80;;;;;;5043160;28;20478;-61
2022/03/27 00:33:40;;;;;;;9.23;6.00;;;13.00;67.90;;;;;;5039227;28;20162;-61
2022/03/27 00:36:07;;;;;;;9.35;5.53;;;12.90;67.90;;;;;;5036325;28;20032;-60
2022/03/27 00:38:33;;;;;;;9.75;5.63;;;12.90;67.90;;;;;;5050017;28;20044;-60
2022/03/27 00:40:59;;;;;;;8.57;5.63;;;12.90;68.00;;;;;;5033528;28;20025;-60
2022/03/27 00:43:27;;;;;;;9.65;5.85;;;12.90;68.00;;;;;;5049362;28;20025;-60
2022/03/27 00:45:53;;;;;;;9.68;6.55;;;12.90;68.00;;;;;;5049222;28;20098;-60
2022/03/27 00:48:20;;;;;;;9.13;6.07;;;12.90;68.00;;;;;;5056710;28;20063;-60
2022/03/27 00:50:48;;;;;;;10.30;6.88;;;12.90;68.00;;;;;;5041898;28;20025;-61
2022/03/27 00:53:14;;;;;;;11.15;6.95;;;12.90;68.00;;;;;;5056512;28;20071;-60
2022/03/27 00:55:40;;;;;;;9.93;6.13;;;12.90;68.10;;;;;;5055996;28;20037;-60
2022/03/27 00:58:06;;;;;;;11.48;6.88;;;12.90;68.10;;;;;;5056699;28;20059;-60
2022/03/27 01:00:37;;;;;;;11.88;7.38;;;12.90;68.10;;;;;;5058373;28;20033;-60
2022/03/27 01:03:08;;;;;;;10.52;6.60;;;12.90;68.20;;;;;;5023858;28;20033;-60
2022/03/27 01:05:34;;;;;;;11.27;7.25;;;12.80;68.10;;;;;;5039757;28;20520;-60
2022/03/27 01:08:05;;;;;;;10.70;7.25;;;12.80;68.10;;;;;;5052185;28;20032;-60
2022/03/27 01:10:32;;;;;;;10.60;7.40;;;12.80;68.30;;;;;;5039362;28;20028;-60
2022/03/27 01:12:58;;;;;;;11.65;7.63;;;12.80;68.30;;;;;;5050149;28;20433;-60
2022/03/27 01:15:46;;;;;;;12.18;8.32;;;12.80;68.40;;;;;;5055413;28;20056;-61
2022/03/27 01:18:12;;;;;;;12.48;7.95;;;12.80;68.40;;;;;;5053726;28;20049;-60
2022/03/27 01:20:42;;;;;;;11.98;7.50;;;12.80;68.40;;;;;;5057160;28;20029;-60
2022/03/27 01:23:11;;;;;;;11.20;7.80;;;12.80;68.50;;;;;;5054573;28;20346;-61
2022/03/27 01:25:38;;;;;;;11.52;7.70;;;12.80;68.50;;;;;;5055430;28;20029;-62
2022/03/27 01:28:05;;;;;;;13.25;8.93;;;12.80;68.50;;;;;;5056357;28;20037;-61
2022/03/27 01:30:30;;;;;;;12.07;8.85;;;12.70;68.60;;;;;;5038605;28;20035;-60
2022/03/27 01:32:57;;;;;;;12.00;8.10;;;12.70;69.20;;;;;;5046022;28;20033;-60
2022/03/27 01:35:23;;;;;;;11.77;8.80;;;12.70;68.60;;;;;;5029597;28;20528;-60
2022/03/27 01:37:49;;;;;;;12.50;8.88;;;12.70;68.70;;;;;;5029834;28;20039;-60
2022/03/27 01:40:17;;;;;;;10.77;7.82;;;12.70;68.70;;;;;;5056599;28;20331;-60
2022/03/27 01:42:43;;;;;;;11.35;8.07;;;12.70;68.70;;;;;;5047321;28;20099;-60
2022/03/27 01:45:09;;;;;;;11.07;7.82;;;12.60;68.80;;;;;;5051260;28;20377;-60
2022/03/27 01:47:36;;;;;;;13.10;8.68;;;12.70;68.90;;;;;;5055617;28;20116;-60
2022/03/27 01:50:03;;;;;;;11.95;8.15;;;12.70;68.90;;;;;;5056421;28;20116;-60
2022/03/27 01:52:29;;;;;;;10.88;7.07;;;12.60;68.80;;;;;;5045413;28;20037;-60
2022/03/27 01:54:55;;;;;;;11.18;7.47;;;12.60;68.80;;;;;;5049189;28;20433;-61
2022/03/27 01:57:20;;;;;;;10.52;7.40;;;12.60;68.80;;;;;;5038561;28;20033;-60
2022/03/27 01:59:46;;;;;;;10.85;7.82;;;12.60;68.70;;;;;;5035509;28;20021;-60
2022/03/27 02:02:11;;;;;;;12.18;7.75;;;12.60;68.70;;;;;;5048770;28;20029;-60
2022/03/27 02:04:37;;;;;;;11.48;7.45;;;12.60;68.70;;;;;;5053642;28;20055;-60
2022/03/27 02:07:03;;;;;;;11.75;7.25;;;12.60;68.70;;;;;;5056853;28;20029;-60
2022/03/27 02:09:29;;;;;;;10.32;7.63;;;12.50;68.60;;;;;;5041280;28;20060;-60
2022/03/27 02:11:54;;;;;;;12.32;7.90;;;12.60;68.70;;;;;;5055242;28;20095;-60
2022/03/27 02:14:21;;;;;;;11.45;7.70;;;12.60;69.30;;;;;;5039233;28;20167;-60
2022/03/27 02:16:47;;;;;;;11.90;7.43;;;12.50;68.60;;;;;;5056695;28;20032;-60
2022/03/27 02:19:12;;;;;;;10.20;7.03;;;12.50;68.50;;;;;;5040958;28;20029;-60
2022/03/27 02:21:40;;;;;;;11.05;7.68;;;12.50;68.60;;;;;;5040510;28;20060;-60
2022/03/27 02:24:06;;;;;;;12.00;7.38;;;12.50;68.60;;;;;;5054874;28;20349;-60
2022/03/27 02:26:32;;;;;;;11.45;7.85;;;12.50;68.50;;;;;;5054579;28;20488;-60
2022/03/27 02:28:58;;;;;;;12.98;8.02;;;12.50;68.50;;;;;;5044187;28;20041;-61
2022/03/27 02:31:24;;;;;;;12.40;8.38;;;12.50;68.50;;;;;;5049757;28;20040;-60
2022/03/27 02:33:49;;;;;;;12.38;7.60;;;12.40;68.50;;;;;;5029873;28;20044;-60
2022/03/27 02:36:16;;;;;;;11.65;7.90;;;12.40;68.50;;;;;;5054065;28;20368;-60
2022/03/27 02:38:43;;;;;;;11.98;8.05;;;12.40;68.50;;;;;;5045767;28;20430;-60
2022/03/27 02:41:09;;;;;;;12.07;7.97;;;12.40;68.50;;;;;;5021265;28;20033;-60
2022/03/27 02:43:38;;;;;;;14.55;9.25;;;12.40;68.50;;;;;;5043675;28;20472;-60
2022/03/27 02:46:07;;;;;;;13.05;8.00;;;12.40;68.60;;;;;;5038295;28;20412;-60
2022/03/27 02:48:33;;;;;;;13.32;8.52;;;12.40;68.60;;;;;;5053896;28;20028;-61
2022/03/27 02:50:58;;;;;;;13.23;7.68;;;12.40;68.50;;;;;;5053351;28;20029;-60
2022/03/27 02:53:24;;;;;;;12.85;8.73;;;12.20;68.50;;;;;;5035456;28;20026;-60
2022/03/27 02:55:50;;;;;;;12.55;8.45;;;12.20;68.60;;;;;;5047173;28;20112;-60
2022/03/27 02:58:16;;;;;;;13.88;8.10;;;12.20;68.60;;;;;;5055103;28;20116;-61
2022/03/27 03:00:42;;;;;;;13.10;8.75;;;12.10;68.60;;;;;;5055245;28;20040;-60
2022/03/27 03:03:11;;;;;;;13.15;8.52;;;12.10;68.60;;;;;;5048330;28;20505;-60
2022/03/27 03:05:39;;;;;;;12.82;8.35;;;12.10;68.60;;;;;;5036297;28;20034;-60
2022/03/27 03:08:06;;;;;;;13.07;7.88;;;12.10;68.50;;;;;;5035110;28;20047;-60
2022/03/27 03:10:32;;;;;;;12.70;7.60;;;12.10;68.40;;;;;;5052986;28;20037;-60
2022/03/27 03:12:58;;;;;;;13.10;7.95;;;12.10;68.30;;;;;;5039232;28;20026;-60
2022/03/27 03:15:24;;;;;;;12.80;7.95;;;12.10;68.20;;;;;;5038096;28;20460;-60
2022/03/27 03:17:50;;;;;;;13.18;7.65;;;12.10;68.10;;;;;;5035763;28;20021;-60
2022/03/27 03:20:16;;;;;;;15.43;8.80;;;12.10;68.10;;;;;;5034975;28;20026;-60
2022/03/27 03:22:42;;;;;;;14.85;8.77;;;12.00;68.10;;;;;;5051855;28;20441;-60
2022/03/27 03:25:09;;;;;;;16.40;8.98;;;11.90;68.00;;;;;;5041939;28;20037;-60
2022/03/27 03:27:35;;;;;;;16.30;9.32;;;11.90;68.10;;;;;;5034666;28;20522;-60
2022/03/27 03:30:01;;;;;;;17.02;10.25;;;11.90;68.20;;;;;;5046608;28;20033;-60
2022/03/27 03:32:27;;;;;;;16.23;9.52;;;11.80;68.20;;;;;;5040891;28;20049;-60
2022/03/27 03:34:53;;;;;;;16.60;9.93;;;11.80;68.20;;;;;;5043314;28;20029;-60
2022/03/27 03:37:19;;;;;;;18.50;11.32;;;11.80;68.20;;;;;;5054816;28;20361;-60
2022/03/27 03:39:46;;;;;;;17.88;10.07;;;11.80;68.20;;;;;;5054560;28;20029;-60
2022/03/27 03:42:11;;;;;;;20.10;12.00;;;11.80;68.20;;;;;;5045957;28;20076;-60
2022/03/27 03:44:37;;;;;;;18.90;10.18;;;11.80;68.20;;;;;;5022998;28;20106;-60
2022/03/27 03:47:04;;;;;;;19.52;11.18;;;11.80;68.20;;;;;;5033642;28;20465;-60
2022/03/27 03:49:29;;;;;;;19.63;11.10;;;11.80;68.30;;;;;;5035005;28;20029;-60
2022/03/27 03:51:56;;;;;;;19.13;11.27;;;11.80;68.30;;;;;;5035896;28;20079;-60
2022/03/27 03:54:22;;;;;;;20.15;11.63;;;11.80;68.30;;;;;;5033555;28;20123;-60
2022/03/27 03:56:48;;;;;;;19.65;11.20;;;11.80;68.30;;;;;;5033602;28;20083;-60
2022/03/27 03:59:13;;;;;;;20.98;10.93;;;11.80;68.20;;;;;;5049010;28;20033;-60
2022/03/27 04:01:39;;;;;;;20.30;10.57;;;11.80;68.20;;;;;;5037393;28;20040;-60
2022/03/27 04:04:05;;;;;;;18.42;10.73;;;11.80;68.20;;;;;;5034815;28;20075;-60
2022/03/27 04:06:31;;;;;;;19.38;11.02;;;11.80;68.20;;;;;;5036231;28;20033;-60
2022/03/27 04:08:57;;;;;;;20.65;10.48;;;11.70;68.20;;;;;;5033746;28;20032;-60
2022/03/27 04:11:23;;;;;;;18.90;11.10;;;11.70;68.20;;;;;;5032218;28;20474;-60
2022/03/27 04:13:48;;;;;;;19.48;12.07;;;11.70;68.30;;;;;;5033203;28;20393;-60
2022/03/27 04:16:14;;;;;;;20.50;12.35;;;11.70;68.30;;;;;;5033788;28;20028;-60
2022/03/27 04:18:40;;;;;;;17.95;11.70;;;11.70;68.30;;;;;;5035715;28;20038;-60
2022/03/27 04:21:06;;;;;;;17.38;10.77;;;11.70;68.30;;;;;;5039284;28;20051;-60
2022/03/27 04:23:32;;;;;;;18.35;11.43;;;11.70;68.30;;;;;;5035561;28;20478;-60
2022/03/27 04:25:58;;;;;;;19.77;11.25;;;11.60;68.20;;;;;;5035585;28;20025;-60
2022/03/27 04:28:24;;;;;;;17.88;10.25;;;11.60;68.20;;;;;;5035214;28;20030;-60
2022/03/27 04:30:49;;;;;;;17.52;9.48;;;11.60;68.10;;;;;;5031785;28;20087;-60
2022/03/27 04:33:15;;;;;;;15.73;9.68;;;11.60;68.00;;;;;;5034064;28;20041;-60
2022/03/27 04:35:41;;;;;;;16.50;9.27;;;11.60;68.60;;;;;;5046030;28;20025;-60
2022/03/27 04:38:07;;;;;;;18.10;10.70;;;11.50;67.90;;;;;;5034835;28;20044;-60
2022/03/27 04:40:33;;;;;;;18.38;11.30;;;11.50;67.90;;;;;;5039799;28;20033;-60
2022/03/27 04:42:59;;;;;;;16.65;9.38;;;11.50;67.80;;;;;;5051645;28;20409;-60
2022/03/27 04:45:24;;;;;;;16.08;9.23;;;11.40;67.80;;;;;;5051910;28;20044;-60
2022/03/27 04:47:50;;;;;;;16.52;9.43;;;11.30;67.70;;;;;;5053683;28;20025;-60
2022/03/27 04:50:16;;;;;;;14.43;8.57;;;11.30;67.70;;;;;;5044268;28;20025;-60
2022/03/27 04:52:41;;;;;;;16.13;9.77;;;11.30;67.60;;;;;;5034291;28;20037;-60
2022/03/27 04:55:07;;;;;;;15.55;9.20;;;11.30;67.60;;;;;;5041956;28;20346;-60
2022/03/27 04:57:38;;;;;;;16.67;8.95;;;11.20;67.40;;;;;;5034403;28;20030;-60
2022/03/27 05:00:14;;;;;;;16.40;9.38;;;11.20;67.30;;;;;;5035675;28;20420;-60
2022/03/27 05:02:41;;;;;;;17.42;9.30;;;11.20;67.10;;;;;;5051001;28;20053;-60
2022/03/27 05:05:10;;;;;;;15.48;9.38;;;11.10;67.10;;;;;;5038997;28;20080;-60
2022/03/27 05:07:40;;;;;;;16.08;9.38;;;11.10;67.10;;;;;;5036209;28;20039;-60
2022/03/27 05:10:08;;;;;;;15.40;8.95;;;11.10;67.00;;;;;;5049746;28;20029;-60
2022/03/27 05:12:33;;;;;;;15.60;9.15;;;11.10;66.90;;;;;;5034669;28;20048;-60
2022/03/27 05:14:59;;;;;;;14.38;9.35;;;11.10;66.90;;;;;;5043691;28;20033;-60
2022/03/27 05:17:25;;;;;;;14.43;8.75;;;11.10;66.80;;;;;;5051770;28;20039;-60
2022/03/27 05:19:50;;;;;;;16.45;8.82;;;11.10;66.80;;;;;;5051846;28;20028;-60
2022/03/27 05:22:16;;;;;;;13.07;8.85;;;11.00;66.70;;;;;;5040598;28;20021;-60
2022/03/27 05:24:42;;;;;;;12.50;7.97;;;11.00;66.60;;;;;;5047678;28;20407;-60
2022/03/27 05:27:08;;;;;;;14.13;8.38;;;11.00;66.50;;;;;;5035566;28;20033;-60
2022/03/27 05:29:34;;;;;;;15.65;8.13;;;11.00;66.40;;;;;;5033136;28;20044;-60
2022/03/27 05:32:00;;;;;;;13.57;8.68;;;10.90;66.30;;;;;;5034788;28;20049;-60
2022/03/27 05:34:25;;;;;;;14.18;8.52;;;10.90;66.20;;;;;;5035048;28;20462;-60
2022/03/27 05:36:51;;;;;;;16.23;8.95;;;10.80;66.10;;;;;;5040645;28;20455;-60
2022/03/27 05:39:17;;;;;;;14.20;8.23;;;10.80;66.10;;;;;;5040512;28;20079;-60
2022/03/27 05:41:44;;;;;;;12.82;7.95;;;10.80;66.10;;;;;;5044683;28;20045;-60
2022/03/27 05:44:09;;;;;;;13.80;8.45;;;10.70;66.10;;;;;;5049172;28;20036;-60
2022/03/27 05:46:35;;;;;;;13.43;8.00;;;10.70;66.10;;;;;;5048462;28;20030;-60
2022/03/27 05:49:01;;;;;;;14.02;8.38;;;10.70;66.10;;;;;;5056328;28;20037;-60
2022/03/27 05:51:26;;;;;;;16.60;9.27;;;10.70;66.10;;;;;;5053426;28;20029;-60
2022/03/27 05:53:52;;;;;;;14.27;8.27;;;10.70;66.10;;;;;;5055970;28;20037;-60
2022/03/27 05:56:17;;;;;;;14.02;8.23;;;10.70;66.10;;;;;;5046032;28;20026;-60
2022/03/27 05:58:43;;;;;;;16.02;10.35;;;10.70;66.00;;;;;;5036511;28;20022;-60
2022/03/27 06:01:09;;;;;;;16.70;8.98;;;10.70;66.00;;;;;;5042685;28;20511;-61
2022/03/27 06:03:35;;;;;;;14.82;8.60;;;10.80;65.90;;;;;;5056220;28;20238;-60
2022/03/27 06:06:02;;;;;;;15.70;9.50;;;10.80;66.50;;;;;;5043042;28;20112;-61
2022/03/27 06:08:27;;;;;;;15.07;8.55;;;10.80;65.80;;;;;;5054269;28;20039;-61
2022/03/27 06:10:53;;;;;;;15.70;9.25;;;10.90;65.70;;;;;;5042145;28;20029;-61
2022/03/27 06:13:19;;;;;;;16.00;10.02;;;10.90;65.50;;;;;;5036932;28;20017;-61
2022/03/27 06:15:46;;;;;;;16.75;9.93;;;10.90;65.40;;;;;;5043806;28;20079;-61
2022/03/27 06:18:12;;;;;;;18.52;9.88;;;11.00;65.40;;;;;;5038259;28;20056;-62
2022/03/27 06:20:39;;;;;;;17.15;9.75;;;11.00;65.30;;;;;;5039662;28;20102;-62
2022/03/27 06:23:06;;;;;;;19.27;10.43;;;11.00;65.20;;;;;;5034953;28;20405;-61
2022/03/27 06:25:32;;;;;;;18.83;10.68;;;11.00;65.20;;;;;;5053636;28;20381;-61
2022/03/27 06:27:59;;;;;;;18.17;10.02;;;11.00;65.80;;;;;;5047834;28;20083;-61
2022/03/27 06:30:29;;;;;;;18.23;9.80;;;11.00;65.10;;;;;;5037949;28;20108;-61
2022/03/27 06:32:55;;;;;;;19.92;10.40;;;11.10;65.00;;;;;;5029900;28;20088;-61
2022/03/27 06:35:23;;;;;;;19.00;10.35;;;11.00;64.90;;;;;;5040074;28;20045;-61
2022/03/27 06:37:49;;;;;;;15.63;10.00;;;11.00;64.80;;;;;;5041508;28;20048;-61
2022/03/27 06:40:16;;;;;;;16.88;10.18;;;11.00;64.80;;;;;;5039443;28;20449;-61
2022/03/27 06:42:43;;;;;;;17.52;10.82;;;11.00;64.70;;;;;;5042713;28;20441;-61
2022/03/27 06:45:10;;;;;;;16.85;9.50;;;11.10;64.60;;;;;;5037893;28;20359;-62
2022/03/27 06:47:37;;;;;;;17.45;10.10;;;11.10;64.40;;;;;;5049634;28;20052;-62
2022/03/27 06:50:04;;;;;;;19.65;10.70;;;11.10;64.30;;;;;;5027553;28;20042;-62
2022/03/27 06:52:31;;;;;;;17.10;10.27;;;11.30;64.10;;;;;;5052231;28;20057;-62
2022/03/27 06:54:58;;;;;;;17.58;9.70;;;11.40;63.70;;;;;;5039440;28;20090;-62
2022/03/27 06:57:24;;;;;;;19.08;10.40;;;11.50;63.30;;;;;;5053482;28;20036;-62
2022/03/27 07:05:20;;;;;;;16.40;8.50;;;11.70;62.60;;;;;;5036171;28;20159;-63
2022/03/27 07:07:46;;;;;;;17.50;10.45;;;11.80;62.40;;;;;;5051312;28;20126;-63
2022/03/27 07:10:12;;;;;;;16.30;9.02;;;12.00;61.80;;;;;;5053381;28;20064;-63
2022/03/27 07:12:38;;;;;;;17.02;9.82;;;12.20;61.30;;;;;;5044766;28;20034;-62
2022/03/27 07:15:06;;;;;;;19.20;9.73;;;12.30;60.90;;;;;;5037546;28;20087;-62
2022/03/27 07:17:32;;;;;;;17.08;10.00;;;12.50;60.50;;;;;;5036959;28;20123;-62
2022/03/27 07:19:57;;;;;;;16.58;9.80;;;12.60;60.30;;;;;;5039595;28;20073;-62
2022/03/27 07:22:23;;;;;;;16.88;9.82;;;12.60;60.10;;;;;;5047044;28;20030;-62
2022/03/27 07:24:49;;;;;;;18.02;9.65;;;12.80;59.90;;;;;;5043036;28;20112;-62
2022/03/27 07:27:14;;;;;;;16.77;10.00;;;12.90;59.60;;;;;;5051794;28;20057;-63
2022/03/27 07:29:40;;;;;;;15.73;9.25;;;13.00;59.30;;;;;;5038217;28;20068;-63
2022/03/27 07:32:06;;;;;;;13.93;8.43;;;13.10;59.10;;;;;;5040702;28;20521;-63
2022/03/27 07:34:33;;;;;;;16.98;10.10;;;13.10;58.90;;;;;;5047970;28;20060;-63
2022/03/27 07:36:59;;;;;;;18.17;10.15;;;13.20;58.70;;;;;;5055679;28;20402;-63
2022/03/27 07:39:25;;;;;;;15.60;8.88;;;13.30;58.50;;;;;;5030246;28;20041;-61
2022/03/27 07:41:50;;;;;;;17.42;9.35;;;13.40;58.30;;;;;;5029019;28;20041;-61
2022/03/27 07:44:16;;;;;;;18.35;9.48;;;13.50;57.90;;;;;;5038552;28;20036;-61
2022/03/27 07:46:41;;;;;;;15.48;9.25;;;13.60;57.70;;;;;;5035799;28;20079;-61
2022/03/27 07:49:08;;;;;;;16.05;9.27;;;13.70;57.50;;;;;;5040460;28;20040;-61
2022/03/27 07:51:36;;;;;;;14.73;9.18;;;13.80;57.10;;;;;;5045863;28;20423;-61
2022/03/27 07:54:03;;;;;;;16.50;9.80;;;14.00;56.90;;;;;;5054627;28;20111;-61
2022/03/27 07:56:32;;;;;;;16.73;9.18;;;14.30;56.50;;;;;;5055159;28;20068;-62
2022/03/27 07:58:57;;;;;;;15.55;9.82;;;14.50;56.00;;;;;;5054695;28;20120;-61
2022/03/27 08:01:24;;;;;;;15.90;9.90;;;14.70;55.60;;;;;;5055399;28;20090;-61
2022/03/27 08:03:50;;;;;;;17.25;9.82;;;14.90;55.20;;;;;;5055758;28;20024;-61
2022/03/27 08:06:16;;;;;;;14.60;8.95;;;15.00;54.80;;;;;;5053935;28;20037;-61
2022/03/27 08:08:42;;;;;;;15.02;9.20;;;15.20;54.50;;;;;;5055587;28;20044;-61
2022/03/27 08:11:08;;;;;;;15.73;10.13;;;15.40;54.10;;;;;;5050513;28;20029;-61
2022/03/27 08:13:34;;;;;;;16.55;9.13;;;15.50;53.80;;;;;;5035390;28;20029;-61
2022/03/27 08:16:00;;;;;;;17.60;9.95;;;15.70;53.40;;;;;;5036006;28;20033;-62
2022/03/27 08:18:26;;;;;;;16.23;9.25;;;15.80;53.00;;;;;;5035141;28;20025;-62
2022/03/27 08:20:52;;;;;;;15.48;8.88;;;16.00;52.70;;;;;;5034215;28;20037;-62
2022/03/27 08:23:18;;;;;;;17.40;8.82;;;16.20;52.30;;;;;;5034344;28;20117;-62
2022/03/27 08:28:28;;;;;;;15.70;9.77;;;16.60;51.40;;;;;;5035533;28;20072;-61
2022/03/27 08:30:53;;;;;;;15.85;9.23;;;16.60;51.20;;;;;;5034439;28;20069;-61
2022/03/27 08:33:19;;;;;;;15.18;9.55;;;16.80;50.90;;;;;;5033996;28;20046;-62
2022/03/27 08:35:45;;;;;;;16.33;9.27;;;16.80;50.60;;;;;;5037114;28;20041;-62
2022/03/27 08:38:15;;;;;;;17.00;9.02;;;17.00;50.30;;;;;;5053461;28;20032;-62
2022/03/27 08:40:42;;;;;;;17.00;9.47;;;17.00;49.70;;;;;;5054046;28;20464;-61
2022/03/27 08:43:11;;;;;;;15.57;9.13;;;17.20;49.50;;;;;;5054923;28;20031;-62
2022/03/27 08:45:36;;;;;;;15.55;9.65;;;17.30;49.20;;;;;;5052406;28;20022;-62
2022/03/27 08:48:04;;;;;;;12.95;7.82;;;17.40;49.00;;;;;;5035167;28;20021;-62
2022/03/27 08:50:37;;;;;;;14.20;8.75;;;17.50;48.80;;;;;;5038688;28;20036;-62
2022/03/27 08:53:06;;;;;;;15.57;8.93;;;17.60;48.70;;;;;;5038498;28;20032;-62
2022/03/27 08:55:47;;;;;;;14.80;9.27;;;17.70;48.50;;;;;;5048824;28;20380;-62
2022/03/27 08:58:13;;;;;;;15.35;8.82;;;17.70;48.70;;;;;;5038191;28;20124;-62
2022/03/27 09:00:40;;;;;;;16.55;9.43;;;17.80;48.20;;;;;;5041848;28;20060;-62
2022/03/27 09:03:07;;;;;;;16.10;9.77;;;17.80;48.10;;;;;;5033808;28;20116;-62
2022/03/27 09:05:37;;;;;;;16.27;9.40;;;17.90;47.80;;;;;;5037488;28;20028;-62
2022/03/27 09:08:07;;;;;;;15.55;9.05;;;17.90;47.60;;;;;;5051873;28;20025;-62
2022/03/27 09:10:33;;;;;;;14.45;8.95;;;18.00;47.60;;;;;;5037724;28;20064;-62
2022/03/27 09:13:00;;;;;;;14.73;9.35;;;18.10;47.50;;;;;;5055361;28;20040;-62
2022/03/27 09:15:26;;;;;;;15.98;9.50;;;18.20;47.20;;;;;;5041648;28;20026;-64
2022/03/27 09:17:55;;;;;;;13.75;8.20;;;18.20;46.90;;;;;;5058605;28;20146;-63
2022/03/27 09:20:34;;;;;;;13.85;8.85;;;18.20;46.50;;;;;;5057836;28;20021;-64
2022/03/27 09:23:14;;;;;;;15.25;8.68;;;18.30;46.40;;;;;;5058558;28;20453;-64
2022/03/27 09:25:53;;;;;;;15.55;9.55;;;18.30;46.30;;;;;;5058332;28;20346;-64
2022/03/27 09:28:25;;;;;;;16.70;9.85;;;18.30;46.20;;;;;;5057405;28;20174;-64
2022/03/27 09:30:51;;;;;;;15.02;9.07;;;18.40;46.30;;;;;;5049212;28;20040;-64
2022/03/27 09:33:32;;;;;;;15.05;9.10;;;18.40;46.20;;;;;;5050087;28;20059;-62
2022/03/27 09:36:11;;;;;;;13.97;8.30;;;18.30;46.00;;;;;;5049751;28;20040;-62
2022/03/27 09:38:38;;;;;;;14.48;8.80;;;18.40;46.00;;;;;;5037295;28;20060;-62
2022/03/27 09:41:05;;;;;;;16.15;9.48;;;18.50;45.80;;;;;;5044347;28;20025;-63
2022/03/27 09:43:31;;;;;;;15.18;9.52;;;18.60;45.50;;;;;;5036798;28;20033;-62
2022/03/27 09:46:04;;;;;;;14.93;9.25;;;18.60;45.30;;;;;;5037831;28;20026;-62
2022/03/27 09:48:31;;;;;;;15.55;9.15;;;18.70;45.00;;;;;;5049190;28;20119;-62
2022/03/27 09:51:00;;;;;;;15.05;9.25;;;18.70;45.10;;;;;;5057124;28;20048;-62
2022/03/27 09:53:28;;;;;;;14.77;8.90;;;18.70;44.90;;;;;;5041248;28;20033;-62
2022/03/27 09:56:03;;;;;;;15.77;8.93;;;18.80;45.00;;;;;;5052261;28;20037;-62
2022/03/27 09:58:33;;;;;;;13.63;8.80;;;18.90;44.70;;;;;;5044191;28;20359;-62
2022/03/27 10:01:17;;;;;;;14.75;9.48;;;18.90;44.70;;;;;;5051762;28;20071;-62
2022/03/27 10:04:04;;;;;;;13.60;8.60;;;19.00;44.40;;;;;;5052138;28;20036;-63
2022/03/27 10:06:40;;;;;;;13.70;7.25;;;19.10;44.20;;;;;;5056521;28;20055;-62
2022/03/27 10:09:08;;;;;;;14.57;8.18;;;19.20;44.10;;;;;;5054904;28;20481;-62
2022/03/27 10:11:35;;;;;;;13.68;7.90;;;19.20;44.00;;;;;;5038262;28;20033;-62
2022/03/27 10:14:03;;;;;;;13.05;7.68;;;19.20;43.90;;;;;;5050532;28;20040;-62
2022/03/27 10:16:37;;;;;;;14.35;8.93;;;19.20;43.70;;;;;;5049240;28;20075;-62
2022/03/27 10:19:33;;;;;;;12.98;8.65;;;19.30;43.50;;;;;;5045924;28;20078;-62
2022/03/27 10:22:01;;;;;;;14.63;8.18;;;19.30;43.20;;;;;;5032409;28;20029;-62
2022/03/27 10:24:30;;;;;;;13.85;8.18;;;19.30;43.30;;;;;;5056257;28;20036;-62
2022/03/27 10:27:01;;;;;;;12.77;8.05;;;19.30;43.10;;;;;;5033936;28;20036;-62
2022/03/27 10:29:27;;;;;;;15.73;8.63;;;19.30;42.90;;;;;;5037095;28;20087;-62
2022/03/27 10:31:53;;;;;;;15.27;8.35;;;19.40;42.90;;;;;;5037723;28;20044;-62
2022/03/27 10:34:21;;;;;;;12.60;7.50;;;19.40;42.70;;;;;;5054635;28;20438;-62
2022/03/27 10:37:06;;;;;;;14.38;8.32;;;19.40;42.50;;;;;;5035996;28;20033;-62
2022/03/27 10:39:47;;;;;;;14.05;8.30;;;19.40;42.40;;;;;;5050346;28;20045;-62
2022/03/27 10:42:28;;;;;;;13.55;7.93;;;19.40;42.30;;;;;;5048312;28;20028;-67
2022/03/27 10:45:00;;;;;;;14.95;8.38;;;19.40;42.20;;;;;;5035642;28;20088;-68
2022/03/27 10:47:29;;;;;;;11.27;7.18;;;19.40;42.20;;;;;;5036505;28;20038;-68
2022/03/27 10:50:01;;;;;;;11.98;6.90;;;19.50;42.30;;;;;;5033363;28;20037;-68
2022/03/27 10:52:30;;;;;;;12.18;6.90;;;19.60;42.20;;;;;;5038845;28;20032;-68
2022/03/27 10:55:15;;;;;;;15.50;7.82;;;19.70;42.00;;;;;;5052282;28;20112;-69
2022/03/27 10:57:42;;;;;;;14.82;7.68;;;19.70;41.70;;;;;;5051597;28;20032;-68
2022/03/27 11:00:10;;;;;;;12.40;6.60;;;19.60;41.60;;;;;;5037087;28;20033;-69
2022/03/27 11:02:50;;;;;;;12.82;6.95;;;19.50;41.70;;;;;;5053610;28;20036;-68
2022/03/27 11:05:36;;;;;;;12.27;6.55;;;19.60;41.40;;;;;;5051210;28;20036;-68
2022/03/27 11:08:23;;;;;;;13.77;6.78;;;19.70;41.30;;;;;;5039822;28;20112;-68
2022/03/27 11:10:52;;;;;;;11.60;6.68;;;19.70;41.20;;;;;;5036787;28;20091;-68
2022/03/27 11:13:26;;;;;;;11.93;6.15;;;19.80;41.10;;;;;;5037915;28;20461;-68
2022/03/27 11:16:02;;;;;;;12.75;6.45;;;19.90;40.70;;;;;;5036484;28;20037;-67
2022/03/27 11:18:43;;;;;;;11.45;7.10;;;19.90;40.40;;;;;;5053477;28;20362;-68
2022/03/27 11:21:34;;;;;;;13.70;6.93;;;19.80;40.20;;;;;;5053776;28;20033;-68
2022/03/27 11:24:03;;;;;;;10.68;5.72;;;19.70;40.30;;;;;;5038360;28;20025;-67
2022/03/27 11:26:31;;;;;;;11.98;6.43;;;19.70;40.20;;;;;;5042008;28;20119;-68
2022/03/27 11:29:04;;;;;;;11.82;6.43;;;19.80;40.10;;;;;;5042287;28;20034;-69
2022/03/27 11:31:35;;;;;;;15.07;5.68;;;19.80;39.90;;;;;;5048801;28;20385;-69
2022/03/27 11:34:14;;;;;;;10.82;6.18;;;19.90;40.00;;;;;;5027654;28;20032;-69
2022/03/27 11:36:42;;;;;;;9.63;5.28;;;19.90;39.70;;;;;;5038588;28;20030;-69
2022/03/27 11:39:11;;;;;;;10.50;6.00;;;19.90;39.80;;;;;;5050579;28;20021;-69
2022/03/27 11:41:44;;;;;;;12.75;6.50;;;19.90;39.80;;;;;;5041308;28;20029;-68
2022/03/27 11:47:34;;;;;;;13.10;6.05;;;19.90;39.80;;;;;;5042561;28;20045;-69
2022/03/27 11:49:59;;;;;;;11.90;5.95;;;20.00;39.60;;;;;;5035447;28;20116;-69
2022/03/27 11:52:25;;;;;;;10.55;5.53;;;20.00;39.50;;;;;;5039687;28;20108;-69
2022/03/27 11:55:09;;;;;;;11.25;5.28;;;20.10;39.40;;;;;;5055509;28;20063;-69
2022/03/27 11:57:44;;;;;;;9.77;5.43;;;20.10;39.10;;;;;;5054293;28;20037;-69
2022/03/27 12:00:11;;;;;;;10.05;4.88;;;20.10;39.00;;;;;;5055038;28;20048;-69
2022/03/27 12:02:45;;;;;;;10.88;5.47;;;20.10;39.10;;;;;;5054508;28;20032;-68
2022/03/27 12:05:14;;;;;;;10.38;5.20;;;20.00;38.90;;;;;;5055471;28;20116;-69
2022/03/27 12:07:56;;;;;;;11.75;4.65;;;19.90;39.00;;;;;;5055327;28;20036;-68
2022/03/27 12:10:23;;;;;;;11.18;5.72;;;19.90;39.00;;;;;;5041249;28;20456;-68
2022/03/27 12:13:00;;;;;;;10.13;5.05;;;19.80;39.00;;;;;;5035265;28;20071;-68
2022/03/27 12:15:49;;;;;;;9.82;5.25;;;19.70;38.90;;;;;;5017553;28;20025;-68
2022/03/27 12:18:38;;;;;;;9.02;4.80;;;19.70;38.90;;;;;;5034569;28;20052;-68
2022/03/27 12:21:14;;;;;;;10.52;4.97;;;19.60;38.80;;;;;;5034690;28;20045;-69
2022/03/27 12:23:51;;;;;;;10.07;4.68;;;19.60;38.90;;;;;;5037310;28;20033;-69
2022/03/27 12:29:42;;;;;;;10.90;4.63;;;19.50;39.10;;;;;;5043167;28;20059;-69
2022/03/27 12:32:11;;;;;;;9.82;4.45;;;19.50;39.10;;;;;;5055119;28;20041;-70
2022/03/27 12:35:01;;;;;;;10.32;5.07;;;19.40;39.30;;;;;;5052115;28;20025;-69
2022/03/27 12:37:30;;;;;;;9.85;4.20;;;19.40;39.30;;;;;;5052091;28;20108;-70
2022/03/27 12:39:56;;;;;;;8.10;4.38;;;19.40;39.50;;;;;;5054637;28;20033;-68
2022/03/27 12:42:46;;;;;;;9.73;4.60;;;19.40;39.50;;;;;;5054919;28;20037;-68
2022/03/27 12:45:25;;;;;;;10.85;5.43;;;19.30;39.30;;;;;;5053189;28;20037;-70
2022/03/27 12:48:12;;;;;;;10.38;4.38;;;19.30;39.60;;;;;;5054909;28;20025;-70
2022/03/27 12:50:41;;;;;;;10.38;4.75;;;19.20;39.60;;;;;;5054807;28;20035;-70
2022/03/27 12:53:13;;;;;;;9.80;4.85;;;19.20;39.60;;;;;;5028283;28;20029;-70
2022/03/27 12:55:50;;;;;;;9.60;4.25;;;19.20;39.70;;;;;;5033873;28;20029;-70
2022/03/27 12:58:22;;;;;;;8.77;4.50;;;19.20;39.70;;;;;;5033909;28;20381;-70